createdAt,value
2019-05-21T00:01:08.793Z,37.42
2019-05-21T00:03:42.846Z,29.12
2019-05-21T00:06:17.144Z,36.08
2019-05-21T00:08:51.920Z,49.38
2019-05-21T00:11:26.377Z,33.42
2019-05-21T00:14:00.630Z,43.42
2019-05-21T00:16:34.600Z,41.80
2019-05-21T00:19:09.692Z,37.20
2019-05-21T00:21:46.533Z,43.00
2019-05-21T00:24:20.491Z,36.35
2019-05-21T00:26:54.603Z,32.93
2019-05-21T00:30:03.143Z,39.92
2019-05-21T00:33:11.970Z,30.97
2019-05-21T00:36:20.473Z,32.53
2019-05-21T00:39:29.262Z,36.33
2019-05-21T00:42:03.465Z,38.02
2019-05-21T00:44:39.675Z,47.80
2019-05-21T00:47:14.610Z,41.30
2019-05-21T00:49:48.544Z,39.90
2019-05-21T00:52:22.877Z,37.93
2019-05-21T00:54:56.851Z,34.33
2019-05-21T00:57:31.086Z,38.45
2019-05-21T01:00:05.116Z,30.55
2019-05-21T01:02:39.275Z,30.27
2019-05-21T01:05:13.697Z,33.48
2019-05-21T01:07:48.478Z,34.45
2019-05-21T01:10:23.170Z,33.55
2019-05-21T01:12:56.929Z,35.83
2019-05-21T01:15:31.329Z,42.30
2019-05-21T01:18:05.987Z,32.42
2019-05-21T01:20:40.361Z,36.00
2019-05-21T01:23:15.499Z,35.48
2019-05-21T01:25:49.774Z,28.90
2019-05-21T01:28:24.112Z,29.80
2019-05-21T01:30:58.836Z,41.28
2019-05-21T01:33:32.815Z,32.23
2019-05-21T01:36:07.128Z,34.05
2019-05-21T01:38:41.481Z,33.70
2019-05-21T01:41:15.677Z,36.38
2019-05-21T01:43:49.825Z,28.52
2019-05-21T01:46:24.003Z,27.13
2019-05-21T01:48:57.971Z,31.50
2019-05-21T01:51:32.247Z,33.73
2019-05-21T01:54:07.138Z,32.13
2019-05-21T01:56:41.210Z,28.67
2019-05-21T01:59:15.607Z,29.50
2019-05-21T02:01:49.539Z,31.77
2019-05-21T02:04:24.171Z,28.65
2019-05-21T02:06:58.797Z,34.75
2019-05-21T02:09:34.372Z,33.75
2019-05-21T02:12:10.754Z,37.95
2019-05-21T02:14:45.120Z,37.78
2019-05-21T02:17:19.407Z,31.23
2019-05-21T02:19:53.504Z,31.97
2019-05-21T02:22:29.166Z,38.65
2019-05-21T02:25:03.533Z,33.30
2019-05-21T02:27:38.424Z,33.00
2019-05-21T02:30:13.765Z,31.77
2019-05-21T02:32:48.096Z,32.95
2019-05-21T02:35:22.496Z,37.63
2019-05-21T02:37:57.305Z,35.83
2019-05-21T02:40:32.005Z,32.60
2019-05-21T02:43:06.364Z,34.78
2019-05-21T02:45:41.230Z,31.12
2019-05-21T02:48:15.896Z,36.93
2019-05-21T02:50:50.007Z,32.95
2019-05-21T02:53:23.948Z,28.85
2019-05-21T02:55:58.281Z,38.40
2019-05-21T02:58:32.464Z,45.60
2019-05-21T03:01:22.932Z,29.57
2019-05-21T03:03:56.849Z,25.68
2019-05-21T03:06:31.197Z,30.27
2019-05-21T03:09:06.210Z,35.05
2019-05-21T03:11:40.302Z,38.98
2019-05-21T03:14:14.954Z,37.48
2019-05-21T03:16:49.395Z,37.83
2019-05-21T03:19:23.654Z,39.90
2019-05-21T03:21:58.128Z,33.90
2019-05-21T03:24:32.197Z,33.38
2019-05-21T03:27:06.449Z,48.00
2019-05-21T03:29:40.730Z,41.95
2019-05-21T03:32:15.494Z,52.73
2019-05-21T03:34:49.557Z,45.88
2019-05-21T03:37:23.778Z,42.67
2019-05-21T03:39:58.505Z,59.90
2019-05-21T03:42:32.672Z,58.55
2019-05-21T03:45:08.248Z,42.17
2019-05-21T03:47:43.150Z,42.25
2019-05-21T03:50:17.410Z,58.25
2019-05-21T03:52:52.027Z,59.42
2019-05-21T03:55:26.580Z,42.90
2019-05-21T03:58:00.676Z,48.80
2019-05-21T04:00:36.177Z,53.60
2019-05-21T04:03:10.253Z,51.08
2019-05-21T04:05:44.303Z,56.50
2019-05-21T04:08:18.547Z,52.45
2019-05-21T04:10:52.712Z,43.02
2019-05-21T04:13:26.688Z,54.13
2019-05-21T04:16:04.393Z,52.45
2019-05-21T04:18:42.414Z,41.95
2019-05-21T04:21:16.501Z,64.00
2019-05-21T04:23:52.013Z,49.53
2019-05-21T04:26:26.244Z,46.25
2019-05-21T04:29:00.711Z,57.62
2019-05-21T04:31:35.175Z,48.35
2019-05-21T04:34:09.505Z,57.05
2019-05-21T04:36:45.227Z,44.00
2019-05-21T04:39:20.775Z,53.23
2019-05-21T04:41:56.521Z,60.60
2019-05-21T04:44:32.023Z,47.93
2019-05-21T04:47:05.879Z,61.00
2019-05-21T04:49:39.985Z,45.80
2019-05-21T04:52:14.287Z,51.13
2019-05-21T04:54:48.566Z,46.23
2019-05-21T04:57:23.430Z,42.25
2019-05-21T04:59:58.297Z,49.77
2019-05-21T05:02:32.607Z,45.55
2019-05-21T05:05:08.775Z,60.12
2019-05-21T05:07:46.841Z,51.75
2019-05-21T05:10:21.751Z,43.78
2019-05-21T05:12:56.020Z,46.58
2019-05-21T05:15:30.482Z,51.18
2019-05-21T05:18:04.872Z,49.90
2019-05-21T05:20:39.637Z,49.38
2019-05-21T05:23:14.732Z,48.95
2019-05-21T05:25:51.789Z,52.05
2019-05-21T05:28:26.206Z,55.43
2019-05-21T05:31:02.564Z,44.60
2019-05-21T05:33:36.801Z,50.60
2019-05-21T05:36:11.247Z,47.98
2019-05-21T05:38:45.798Z,53.83
2019-05-21T05:41:19.940Z,51.30
2019-05-21T05:43:55.925Z,57.27
2019-05-21T05:46:31.336Z,44.85
2019-05-21T05:49:06.538Z,48.52
2019-05-21T05:51:40.814Z,52.35
2019-05-21T05:54:16.434Z,43.95
2019-05-21T05:56:50.553Z,45.12
2019-05-21T05:59:25.036Z,39.18
2019-05-21T06:01:59.192Z,40.52
2019-05-21T06:04:46.833Z,37.35
2019-05-21T06:07:23.971Z,37.60
2019-05-21T06:09:58.557Z,35.78
2019-05-21T06:12:33.126Z,44.25
2019-05-21T06:15:08.176Z,44.00
2019-05-21T06:17:42.358Z,41.30
2019-05-21T06:20:16.873Z,41.42
2019-05-21T06:22:51.678Z,43.75
2019-05-21T06:25:26.148Z,37.33
2019-05-21T06:28:00.615Z,44.10
2019-05-21T06:30:35.246Z,46.92
2019-05-21T06:33:09.196Z,41.88
2019-05-21T06:35:44.952Z,45.28
2019-05-21T06:38:22.438Z,42.10
2019-05-21T06:40:56.638Z,50.83
2019-05-21T06:43:30.921Z,57.08
2019-05-21T06:46:05.170Z,50.10
2019-05-21T06:48:54.265Z,43.58
2019-05-21T06:51:28.720Z,48.73
2019-05-21T06:54:05.399Z,49.33
2019-05-21T06:56:39.493Z,51.02
2019-05-21T06:59:14.019Z,49.70
2019-05-21T07:01:49.246Z,50.83
2019-05-21T07:04:23.826Z,46.28
2019-05-21T07:06:58.224Z,42.40
2019-05-21T07:09:32.636Z,47.38
2019-05-21T07:12:08.930Z,39.20
2019-05-21T07:14:42.384Z,51.50
2019-05-21T07:17:17.821Z,41.75
2019-05-21T07:19:53.457Z,48.38
2019-05-21T07:22:28.250Z,47.15
2019-05-21T07:25:03.927Z,39.55
2019-05-21T07:27:39.332Z,48.00
2019-05-21T07:30:15.951Z,38.02
2019-05-21T07:32:50.290Z,37.30
2019-05-21T07:35:25.892Z,51.98
2019-05-21T07:38:00.392Z,36.85
2019-05-21T07:40:34.771Z,42.80
2019-05-21T07:43:11.198Z,44.88
2019-05-21T07:45:45.343Z,43.55
2019-05-21T07:48:19.531Z,49.63
2019-05-21T07:50:53.988Z,43.68
2019-05-21T07:53:28.453Z,46.45
2019-05-21T07:56:02.645Z,38.83
2019-05-21T07:58:37.162Z,42.43
2019-05-21T08:01:11.410Z,41.58
2019-05-21T08:03:45.354Z,43.70
2019-05-21T08:06:21.668Z,44.00
2019-05-21T08:09:11.676Z,52.60
2019-05-21T08:11:32.496Z,45.03
2019-05-21T08:14:08.656Z,42.58
2019-05-21T08:16:42.733Z,44.08
2019-05-21T08:19:16.831Z,48.23
2019-05-21T08:21:51.092Z,47.93
2019-05-21T08:24:25.598Z,48.02
2019-05-21T08:27:17.077Z,40.60
2019-05-21T08:29:52.173Z,49.73
2019-05-21T08:32:26.295Z,52.80
2019-05-21T08:35:00.327Z,53.95
2019-05-21T08:37:34.927Z,47.78
2019-05-21T08:40:10.175Z,51.98
2019-05-21T08:42:44.167Z,56.40
2019-05-21T08:47:52.241Z,50.30
2019-05-21T08:50:26.884Z,57.27
2019-05-21T08:53:01.441Z,58.40
2019-05-21T08:55:35.652Z,54.23
2019-05-21T08:58:09.901Z,52.45
2019-05-21T09:00:44.055Z,63.85
2019-05-21T09:03:18.609Z,50.85
2019-05-21T09:05:52.981Z,60.60
2019-05-21T09:08:27.202Z,51.02
2019-05-21T09:11:01.246Z,63.35
2019-05-21T09:13:35.454Z,43.02
2019-05-21T09:16:09.389Z,52.03
2019-05-21T09:18:43.806Z,55.52
2019-05-21T09:21:18.311Z,66.05
2019-05-21T09:23:52.581Z,58.45
2019-05-21T09:26:26.715Z,62.17
2019-05-21T09:29:00.915Z,59.53
2019-05-21T09:31:35.356Z,53.60
2019-05-21T09:34:09.198Z,62.17
2019-05-21T09:36:43.542Z,56.25
2019-05-21T09:39:17.477Z,62.45
2019-05-21T09:41:51.460Z,61.88
2019-05-21T09:44:25.666Z,64.55
2019-05-21T09:46:59.696Z,66.75
2019-05-21T09:49:33.705Z,56.23
2019-05-21T09:52:08.087Z,50.52
2019-05-21T09:54:42.697Z,60.88
2019-05-21T09:57:17.783Z,49.23
2019-05-21T09:59:56.166Z,51.02
2019-05-21T10:02:34.190Z,56.23
2019-05-21T10:05:09.151Z,65.05
2019-05-21T10:07:43.393Z,64.10
2019-05-21T10:10:17.709Z,55.38
2019-05-21T10:12:51.696Z,53.83
2019-05-21T10:15:25.911Z,59.38
2019-05-21T10:18:00.084Z,61.00
2019-05-21T10:20:33.901Z,53.33
2019-05-21T10:23:08.417Z,52.93
2019-05-21T10:25:42.903Z,51.98
2019-05-21T10:28:17.303Z,53.95
2019-05-21T10:30:51.344Z,63.80
2019-05-21T10:33:25.774Z,63.73
2019-05-21T10:35:59.930Z,61.70
2019-05-21T10:38:34.412Z,65.50
2019-05-21T10:41:08.578Z,59.18
2019-05-21T10:43:42.621Z,66.28
2019-05-21T10:46:16.829Z,60.55
2019-05-21T10:48:51.284Z,68.07
2019-05-21T10:51:25.832Z,83.47
2019-05-21T10:54:00.494Z,83.90
2019-05-21T10:56:47.600Z,70.17
2019-05-21T10:59:10.273Z,70.97
2019-05-21T11:02:05.488Z,70.67
2019-05-21T11:04:49.713Z,64.70
2019-05-21T11:07:24.439Z,65.32
2019-05-21T11:09:59.441Z,71.57
2019-05-21T11:12:33.354Z,71.35
2019-05-21T11:15:09.573Z,62.83
2019-05-21T11:17:53.747Z,61.77
2019-05-21T11:20:19.548Z,68.62
2019-05-21T11:22:53.410Z,58.15
2019-05-21T11:25:28.732Z,64.77
2019-05-21T11:28:06.082Z,66.47
2019-05-21T11:30:39.271Z,72.75
2019-05-21T11:33:13.369Z,79.60
2019-05-21T11:35:47.476Z,84.13
2019-05-21T11:38:21.955Z,77.20
2019-05-21T11:40:56.543Z,108.65
2019-05-21T11:43:33.679Z,82.82
2019-05-21T11:46:10.065Z,78.60
2019-05-21T11:48:44.698Z,74.35
2019-05-21T11:51:23.770Z,77.40
2019-05-21T11:53:58.549Z,86.72
2019-05-21T11:56:36.353Z,74.60
2019-05-21T11:59:10.927Z,77.62
2019-05-21T12:01:45.849Z,77.45
2019-05-21T12:04:26.538Z,127.20
2019-05-21T12:07:04.088Z,98.30
2019-05-21T12:09:41.026Z,111.97
2019-05-21T12:12:15.361Z,76.62
2019-05-21T12:14:49.766Z,78.40
2019-05-21T12:17:28.964Z,72.50
2019-05-21T12:20:03.300Z,75.05
2019-05-21T12:22:39.155Z,64.30
2019-05-21T12:25:15.122Z,78.30
2019-05-21T12:27:49.520Z,77.20
2019-05-21T12:30:24.055Z,71.05
2019-05-21T12:32:58.221Z,72.70
2019-05-21T12:35:34.933Z,73.70
2019-05-21T12:38:09.290Z,79.70
2019-05-21T12:40:44.021Z,67.97
2019-05-21T12:43:22.110Z,63.73
2019-05-21T12:45:57.241Z,95.40
2019-05-21T12:48:31.258Z,67.60
2019-05-21T12:51:07.305Z,66.33
2019-05-21T12:53:42.641Z,73.62
2019-05-21T12:56:16.549Z,67.70
2019-05-21T12:58:52.154Z,64.30
2019-05-21T13:01:29.985Z,65.10
2019-05-21T13:04:02.058Z,65.28
2019-05-21T13:06:37.800Z,55.98
2019-05-21T13:09:31.462Z,61.98
2019-05-21T13:11:55.123Z,70.78
2019-05-21T13:14:29.342Z,68.55
2019-05-21T13:17:05.136Z,70.17
2019-05-21T13:19:39.727Z,57.23
2019-05-21T13:22:17.279Z,51.70
2019-05-21T13:24:51.642Z,63.58
2019-05-21T13:27:25.900Z,65.20
2019-05-21T13:30:03.303Z,62.65
2019-05-21T13:32:43.681Z,67.58
2019-05-21T13:35:18.182Z,59.35
2019-05-21T13:37:56.486Z,55.70
2019-05-21T13:40:35.144Z,55.23
2019-05-21T13:43:09.318Z,58.55
2019-05-21T13:45:54.461Z,60.83
2019-05-21T13:51:05.441Z,72.33
2019-05-21T13:53:42.583Z,52.90
2019-05-21T13:56:25.346Z,57.40
2019-05-21T13:59:00.705Z,57.38
2019-05-21T14:01:41.281Z,51.00
2019-05-21T14:04:21.100Z,66.55
2019-05-21T14:06:55.429Z,58.92
2019-05-21T14:09:34.332Z,62.73
2019-05-21T14:12:14.503Z,52.90
2019-05-21T14:14:47.732Z,58.85
2019-05-21T14:17:24.875Z,57.33
2019-05-21T14:20:03.245Z,60.35
2019-05-21T14:22:37.320Z,60.30
2019-05-21T14:25:28.808Z,58.23
2019-05-21T14:28:15.168Z,61.33
2019-05-21T14:30:50.707Z,56.25
2019-05-21T14:33:31.259Z,56.98
2019-05-21T14:36:09.298Z,57.83
2019-05-21T14:38:47.461Z,59.93
2019-05-21T14:41:23.063Z,54.00
2019-05-21T14:43:59.242Z,53.45
2019-05-21T14:46:38.609Z,59.60
2019-05-21T14:49:17.202Z,56.83
2019-05-21T14:51:53.778Z,53.63
2019-05-21T14:54:29.021Z,55.40
2019-05-21T14:57:09.947Z,50.43
2019-05-21T14:59:51.605Z,61.37
2019-05-21T15:02:29.132Z,54.20
2019-05-21T15:05:07.772Z,57.05
2019-05-21T15:07:44.101Z,59.13
2019-05-21T15:10:19.443Z,52.38
2019-05-21T15:12:59.786Z,56.53
2019-05-21T15:15:36.560Z,57.88
2019-05-21T15:18:19.513Z,55.45
2019-05-21T15:20:56.910Z,58.00
2019-05-21T15:23:32.116Z,52.43
2019-05-21T15:26:12.331Z,55.40
2019-05-21T15:28:47.785Z,51.28
2019-05-21T15:31:23.559Z,52.08
2019-05-21T15:34:00.668Z,49.08
2019-05-21T15:36:35.850Z,58.52
2019-05-21T15:39:12.001Z,50.35
2019-05-21T15:41:51.653Z,49.90
2019-05-21T15:47:21.078Z,53.23
2019-05-21T15:50:02.313Z,47.60
2019-05-21T15:52:37.207Z,50.50
2019-05-21T15:55:14.022Z,57.73
2019-05-21T15:57:48.419Z,59.50
2019-05-21T16:00:25.499Z,59.88
2019-05-21T16:03:08.720Z,57.03
2019-05-21T16:05:40.711Z,50.03
2019-05-21T16:08:17.940Z,60.48
2019-05-21T16:10:55.067Z,60.15
2019-05-21T16:13:31.387Z,58.48
2019-05-21T16:16:06.973Z,55.25
2019-05-21T16:18:42.915Z,53.33
2019-05-21T16:21:16.868Z,54.18
2019-05-21T16:26:46.669Z,55.50
2019-05-21T16:29:29.178Z,56.20
2019-05-21T16:32:01.549Z,51.70
2019-05-21T16:34:40.325Z,58.15
2019-05-21T16:37:16.027Z,47.73
2019-05-21T16:39:53.742Z,49.15
2019-05-21T16:42:53.240Z,55.60
2019-05-21T16:45:27.426Z,61.00
2019-05-21T16:48:02.782Z,53.08
2019-05-21T16:50:38.612Z,57.45
2019-05-21T16:53:13.158Z,45.92
2019-05-21T16:55:47.116Z,52.88
2019-05-21T16:58:21.434Z,50.05
2019-05-21T17:00:56.096Z,46.55
2019-05-21T17:06:21.375Z,49.10
2019-05-21T17:11:59.062Z,54.48
2019-05-21T17:14:22.025Z,49.80
2019-05-21T17:16:56.454Z,55.20
2019-05-21T17:19:31.076Z,48.45
2019-05-21T17:22:06.528Z,48.20
2019-05-21T17:25:26.859Z,49.40
2019-05-21T17:28:00.960Z,56.10
2019-05-21T17:30:35.265Z,49.20
2019-05-21T17:33:09.725Z,51.02
2019-05-21T17:35:43.625Z,47.25
2019-05-21T17:38:17.918Z,48.38
2019-05-21T17:40:52.153Z,45.90
2019-05-21T17:43:26.945Z,49.35
2019-05-21T17:46:01.219Z,51.83
2019-05-21T17:48:35.900Z,52.53
2019-05-21T17:51:10.512Z,53.30
2019-05-21T17:53:45.117Z,48.50
2019-05-21T17:56:19.570Z,56.88
2019-05-21T17:58:53.776Z,53.25
2019-05-21T18:01:28.099Z,51.13
2019-05-21T18:04:02.301Z,49.27
2019-05-21T18:06:37.599Z,55.83
2019-05-21T18:09:13.853Z,51.40
2019-05-21T18:11:48.197Z,57.08
2019-05-21T18:14:22.797Z,51.28
2019-05-21T18:16:56.943Z,48.87
2019-05-21T18:19:30.910Z,47.55
2019-05-21T18:22:06.874Z,62.85
2019-05-21T18:24:41.453Z,51.70
2019-05-21T18:27:15.502Z,49.93
2019-05-21T18:29:49.525Z,51.73
2019-05-21T18:32:24.087Z,58.35
2019-05-21T18:34:58.010Z,54.75
2019-05-21T18:37:33.309Z,48.87
2019-05-21T18:40:09.259Z,49.05
2019-05-21T18:42:44.947Z,53.75
2019-05-21T18:45:19.667Z,52.00
2019-05-21T18:47:53.837Z,61.88
2019-05-21T18:50:36.012Z,54.27
2019-05-21T18:53:04.157Z,56.28
2019-05-21T18:55:38.735Z,51.02
2019-05-21T18:58:13.031Z,56.58
2019-05-21T19:00:47.562Z,63.00
2019-05-21T19:03:28.859Z,55.65
2019-05-21T19:05:57.295Z,52.70
2019-05-21T19:08:31.109Z,47.95
2019-05-21T19:11:05.340Z,51.25
2019-05-21T19:13:39.570Z,54.50
2019-05-21T19:16:13.815Z,53.55
2019-05-21T19:18:47.963Z,54.88
2019-05-21T19:21:22.623Z,49.25
2019-05-21T19:23:57.096Z,51.40
2019-05-21T19:26:31.448Z,57.15
2019-05-21T19:29:07.768Z,55.75
2019-05-21T19:31:41.828Z,49.00
2019-05-21T19:34:15.766Z,49.48
2019-05-21T19:36:49.644Z,48.85
2019-05-21T19:39:23.915Z,59.25
2019-05-21T19:42:13.223Z,52.62
2019-05-21T19:44:47.588Z,60.95
2019-05-21T19:47:22.068Z,52.93
2019-05-21T19:49:56.428Z,49.33
2019-05-21T19:52:31.034Z,50.05
2019-05-21T19:55:04.884Z,52.27
2019-05-21T19:57:39.715Z,54.15
2019-05-21T20:00:14.845Z,47.95
2019-05-21T20:02:49.228Z,49.65
2019-05-21T20:05:23.703Z,56.63
2019-05-21T20:07:57.859Z,50.28
2019-05-21T20:10:34.169Z,51.35
2019-05-21T20:13:07.599Z,47.45
2019-05-21T20:15:41.641Z,49.05
2019-05-21T20:18:17.009Z,50.95
2019-05-21T20:20:52.252Z,51.40
2019-05-21T20:23:26.690Z,46.90
2019-05-21T20:26:01.904Z,43.15
2019-05-21T20:28:36.364Z,53.83
2019-05-21T20:31:11.162Z,49.83
2019-05-21T20:33:46.875Z,45.30
2019-05-21T20:36:21.307Z,51.60
2019-05-21T20:38:55.987Z,52.88
2019-05-21T20:41:30.818Z,45.58
2019-05-21T20:44:05.766Z,50.90
2019-05-21T20:46:41.333Z,52.27
2019-05-21T20:49:15.402Z,46.15
2019-05-21T20:51:49.826Z,48.30
2019-05-21T20:54:25.404Z,53.80
2019-05-21T20:56:59.413Z,57.17
2019-05-21T20:59:34.091Z,45.83
2019-05-21T21:02:09.732Z,41.75
2019-05-21T21:04:43.909Z,60.03
2019-05-21T21:07:18.296Z,50.48
2019-05-21T21:09:52.616Z,51.10
2019-05-21T21:12:27.630Z,53.78
2019-05-21T21:15:02.424Z,49.93
2019-05-21T21:17:36.956Z,46.77
2019-05-21T21:20:11.666Z,47.17
2019-05-21T21:22:46.195Z,51.92
2019-05-21T21:25:25.678Z,54.38
2019-05-21T21:27:59.982Z,48.78
2019-05-21T21:30:35.548Z,56.23
2019-05-21T21:33:11.881Z,56.75
2019-05-21T21:35:46.259Z,57.05
2019-05-21T21:38:22.095Z,52.90
2019-05-21T21:40:56.404Z,51.65
2019-05-21T21:43:30.649Z,48.63
2019-05-21T21:46:05.500Z,56.15
2019-05-21T21:48:45.327Z,49.53
2019-05-21T21:51:19.302Z,44.60
2019-05-21T21:53:54.102Z,44.10
2019-05-21T21:56:28.203Z,46.60
2019-05-21T21:59:02.474Z,56.45
2019-05-21T22:01:44.661Z,54.27
2019-05-21T22:04:21.171Z,48.50
2019-05-21T22:06:56.135Z,59.45
2019-05-21T22:09:31.976Z,54.75
2019-05-21T22:12:07.459Z,47.93
2019-05-21T22:14:51.374Z,57.15
2019-05-21T22:17:19.665Z,52.43
2019-05-21T22:19:54.228Z,49.85
2019-05-21T22:22:28.252Z,54.35
2019-05-21T22:25:02.466Z,41.73
2019-05-21T22:27:37.580Z,53.70
2019-05-21T22:30:12.273Z,53.58
2019-05-21T22:32:46.875Z,52.67
2019-05-21T22:35:21.568Z,46.33
2019-05-21T22:37:55.563Z,52.30
2019-05-21T22:40:29.947Z,62.33
2019-05-21T22:43:04.184Z,52.70
2019-05-21T22:45:38.430Z,50.23
2019-05-21T22:48:12.590Z,54.25
2019-05-21T22:50:46.913Z,49.35
2019-05-21T22:53:21.629Z,61.42
2019-05-21T22:55:55.863Z,52.17
2019-05-21T22:58:30.108Z,54.67
2019-05-21T23:01:05.610Z,54.77
2019-05-21T23:03:39.781Z,52.98
2019-05-21T23:06:14.166Z,50.98
2019-05-21T23:08:58.692Z,51.92
2019-05-21T23:11:33.271Z,48.17
2019-05-21T23:14:07.381Z,54.48
2019-05-21T23:16:43.188Z,55.88
2019-05-21T23:19:31.229Z,53.28
2019-05-21T23:22:07.534Z,51.65
2019-05-21T23:24:42.357Z,54.98
2019-05-21T23:27:17.166Z,57.30
2019-05-21T23:29:52.232Z,63.75
2019-05-21T23:32:26.993Z,56.28
2019-05-21T23:35:02.670Z,54.73
2019-05-21T23:37:37.001Z,60.00
2019-05-21T23:40:13.079Z,56.13
2019-05-21T23:42:47.138Z,48.63
2019-05-21T23:45:21.328Z,58.17
2019-05-21T23:47:55.430Z,57.90
2019-05-21T23:50:30.352Z,56.83
2019-05-21T23:53:05.637Z,65.62
2019-05-21T23:55:40.469Z,59.13
2019-05-21T23:58:14.599Z,57.25
